Time;durP1;ratioP1;P1;durP2;ratioP2;P2;SDS_P1;SDS_P2;PMS_P1;PMS_P2;Temp;Humidity;BMP_temperature;BMP_pressure;BME280_temperature;BME280_humidity;BME280_pressure;Samples;Min_cycle;Max_cycle;Signal;HPM_P1;HPM_P2
2021/06/17 00:01:48;;;;;;;7.35;4.47;;;25.50;99.90;;;;;;4974656;28;20205;-90
2021/06/17 00:04:14;;;;;;;5.68;5.13;;;25.60;99.90;;;;;;4974983;28;20166;-83
2021/06/17 00:06:39;;;;;;;4.60;4.20;;;25.50;99.90;;;;;;4973739;28;20273;-81
2021/06/17 00:09:06;;;;;;;6.97;4.78;;;25.50;99.90;;;;;;4975157;28;20173;-86
2021/06/17 00:11:32;;;;;;;9.15;3.67;;;25.50;99.90;;;;;;4975100;28;20189;-79
2021/06/17 00:13:57;;;;;;;7.57;4.25;;;25.60;99.90;;;;;;4975348;28;20177;-82
2021/06/17 00:16:23;;;;;;;9.25;4.38;;;25.50;99.90;;;;;;4974916;28;20210;-90
2021/06/17 00:18:49;;;;;;;6.10;4.15;;;25.50;99.90;;;;;;4975637;28;20329;-90
2021/06/17 00:21:15;;;;;;;5.25;4.50;;;25.60;99.90;;;;;;4974964;28;20193;-78
2021/06/17 00:23:41;;;;;;;4.40;4.05;;;25.70;99.90;;;;;;4974756;28;20169;-79
2021/06/17 00:26:07;;;;;;;6.20;5.20;;;25.70;99.90;;;;;;4974757;28;20551;-90
2021/06/17 00:28:33;;;;;;;8.27;4.28;;;25.70;99.90;;;;;;4974355;28;20182;-81
2021/06/17 00:30:59;;;;;;;4.70;4.38;;;25.80;99.90;;;;;;4974887;28;20190;-84
2021/06/17 00:33:25;;;;;;;4.38;4.07;;;25.70;99.90;;;;;;4975151;28;20185;-80
2021/06/17 00:35:51;;;;;;;4.82;4.43;;;25.80;99.90;;;;;;4974413;28;20669;-80
2021/06/17 00:38:17;;;;;;;11.35;4.75;;;25.80;99.90;;;;;;4973668;28;20202;-80
2021/06/17 00:40:43;;;;;;;4.30;3.83;;;25.60;99.90;;;;;;4974197;28;20186;-78
2021/06/17 00:43:10;;;;;;;4.15;3.85;;;25.40;99.90;;;;;;4974298;28;20166;-79
2021/06/17 00:45:37;;;;;;;4.28;3.88;;;25.20;99.90;;;;;;4973628;28;20174;-80
2021/06/17 00:48:03;;;;;;;5.65;4.63;;;25.10;99.90;;;;;;4974146;28;20220;-79
2021/06/17 00:50:32;;;;;;;5.25;4.78;;;25.10;99.90;;;;;;4974291;28;20608;-78
2021/06/17 00:52:59;;;;;;;4.88;4.40;;;25.10;99.90;;;;;;4974805;28;20162;-78
2021/06/17 00:55:25;;;;;;;6.10;4.68;;;25.10;99.90;;;;;;4974089;28;20174;-79
2021/06/17 00:57:50;;;;;;;4.90;4.43;;;25.20;99.90;;;;;;4974676;28;20182;-81
2021/06/17 01:00:17;;;;;;;17.45;5.13;;;25.30;99.90;;;;;;4974312;28;20169;-87
2021/06/17 01:02:44;;;;;;;5.80;4.63;;;25.40;99.90;;;;;;4973803;28;20188;-79
2021/06/17 01:05:13;;;;;;;4.90;4.50;;;25.30;99.90;;;;;;4974039;28;20162;-92
2021/06/17 01:08:00;;;;;;;6.63;4.75;;;25.10;99.90;;;;;;4974022;28;20196;-88
2021/06/17 01:10:40;;;;;;;5.25;4.85;;;25.00;99.90;;;;;;4974309;28;20189;-79
2021/06/17 01:13:06;;;;;;;5.95;5.32;;;25.10;99.90;;;;;;4977581;28;20169;-87
2021/06/17 01:15:39;;;;;;;5.35;4.53;;;25.10;99.90;;;;;;4977298;28;20174;-81
2021/06/17 01:18:13;;;;;;;10.13;5.25;;;25.20;99.90;;;;;;4978001;28;20571;-78
2021/06/17 01:20:57;;;;;;;5.90;4.30;;;25.10;99.90;;;;;;4978330;28;20275;-78
2021/06/17 01:23:50;;;;;;;5.70;4.68;;;24.90;99.90;;;;;;4978235;28;20547;-78
2021/06/17 01:26:53;;;;;;;5.07;4.53;;;24.70;99.90;;;;;;4978455;28;20630;-89
2021/06/17 01:29:24;;;;;;;5.00;4.60;;;24.80;99.90;;;;;;4978854;28;20181;-78
2021/06/17 01:31:53;;;;;;;4.95;4.47;;;24.70;99.90;;;;;;4981689;28;20220;-81
2021/06/17 01:34:21;;;;;;;9.82;4.35;;;24.70;99.90;;;;;;4982398;28;20181;-78
2021/06/17 01:36:54;;;;;;;7.20;4.25;;;24.60;99.90;;;;;;4983156;28;20693;-79
2021/06/17 01:39:21;;;;;;;5.07;4.55;;;24.70;99.90;;;;;;4982904;28;20234;-86
2021/06/17 01:41:48;;;;;;;4.53;4.13;;;24.70;99.90;;;;;;4981887;28;20729;-78
2021/06/17 01:44:19;;;;;;;4.60;4.00;;;24.70;99.90;;;;;;4980814;28;20169;-79
2021/06/17 01:46:45;;;;;;;4.68;4.28;;;24.70;99.90;;;;;;4979879;28;20668;-77
2021/06/17 01:49:11;;;;;;;4.90;4.50;;;24.70;99.90;;;;;;4979752;28;20240;-81
2021/06/17 01:51:37;;;;;;;6.13;4.72;;;24.80;99.90;;;;;;4981674;28;20205;-78
2021/06/17 01:54:04;;;;;;;4.72;4.40;;;24.80;99.90;;;;;;4980347;28;20637;-88
2021/06/17 01:56:31;;;;;;;4.82;4.43;;;25.00;99.90;;;;;;4979881;28;20237;-78
2021/06/17 01:59:01;;;;;;;5.35;4.40;;;24.90;99.90;;;;;;4980015;28;20170;-78
2021/06/17 02:01:31;;;;;;;7.82;4.28;;;24.90;99.90;;;;;;4980071;28;20611;-78
2021/06/17 02:03:58;;;;;;;4.55;4.15;;;24.90;99.90;;;;;;4982384;28;20556;-80
2021/06/17 02:06:26;;;;;;;4.00;3.70;;;24.70;99.90;;;;;;4982203;28;20172;-90
2021/06/17 02:08:54;;;;;;;7.38;3.88;;;24.80;99.90;;;;;;4983188;28;20169;-78
2021/06/17 02:11:21;;;;;;;4.30;4.00;;;24.70;99.90;;;;;;4981838;28;20190;-91
2021/06/17 02:13:49;;;;;;;4.97;4.50;;;24.60;99.90;;;;;;4981765;28;20253;-79
2021/06/17 02:16:17;;;;;;;4.68;3.97;;;24.70;99.90;;;;;;4981064;28;20209;-78
2021/06/17 02:18:44;;;;;;;4.22;3.85;;;24.70;99.90;;;;;;4980298;28;20225;-90
2021/06/17 02:21:10;;;;;;;6.88;4.00;;;24.70;99.90;;;;;;4980234;28;20208;-78
2021/06/17 02:23:37;;;;;;;4.70;3.78;;;24.60;99.90;;;;;;4981809;28;20630;-78
2021/06/17 02:26:06;;;;;;;3.83;3.63;;;24.70;99.90;;;;;;4981647;28;20634;-78
2021/06/17 02:28:36;;;;;;;4.10;3.80;;;24.80;99.90;;;;;;4981984;28;20162;-80
2021/06/17 02:31:08;;;;;;;3.47;3.17;;;24.70;99.90;;;;;;4981155;28;20220;-78
2021/06/17 02:33:36;;;;;;;8.57;3.63;;;24.70;99.90;;;;;;4981899;28;20224;-91
2021/06/17 02:36:02;;;;;;;4.57;4.15;;;24.70;99.90;;;;;;4980715;28;20301;-78
2021/06/17 02:38:30;;;;;;;5.50;3.83;;;24.60;99.90;;;;;;4980493;28;20170;-77
2021/06/17 02:40:59;;;;;;;4.15;3.72;;;24.70;99.90;;;;;;4981349;28;20208;-90
2021/06/17 02:43:28;;;;;;;3.75;3.45;;;24.80;99.90;;;;;;4980723;28;20173;-86
2021/06/17 02:45:55;;;;;;;5.20;4.07;;;24.90;99.90;;;;;;4980557;28;20181;-91
2021/06/17 02:48:20;;;;;;;11.20;4.30;;;24.90;99.90;;;;;;4989402;28;20256;-78
2021/06/17 02:50:46;;;;;;;3.65;3.35;;;24.70;99.90;;;;;;4988572;28;20197;-78
2021/06/17 02:53:12;;;;;;;4.35;3.78;;;24.70;99.90;;;;;;4979644;28;20166;-78
2021/06/17 02:55:40;;;;;;;4.70;3.78;;;24.70;99.90;;;;;;4979368;28;20174;-86
2021/06/17 02:58:34;;;;;;;3.88;3.17;;;24.70;99.90;;;;;;4977758;28;20181;-77
2021/06/17 03:01:07;;;;;;;3.90;3.58;;;24.70;99.90;;;;;;4977092;28;20252;-78
2021/06/17 03:03:44;;;;;;;4.28;3.58;;;24.60;99.90;;;;;;4978793;28;20174;-77
2021/06/17 03:06:39;;;;;;;5.43;3.75;;;24.60;99.90;;;;;;4980741;28;20173;-78
2021/06/17 03:09:09;;;;;;;4.55;3.17;;;24.60;99.90;;;;;;4979556;28;20170;-78
2021/06/17 03:11:37;;;;;;;3.88;3.45;;;24.60;99.90;;;;;;4978654;28;20198;-78
2021/06/17 03:14:08;;;;;;;3.60;3.30;;;24.70;99.90;;;;;;4977301;28;20182;-79
2021/06/17 03:16:36;;;;;;;3.55;2.97;;;24.80;99.90;;;;;;4977680;28;20206;-89
2021/06/17 03:19:02;;;;;;;3.63;3.00;;;24.80;99.90;;;;;;4976778;28;20166;-88
2021/06/17 03:21:32;;;;;;;3.83;3.05;;;24.80;99.90;;;;;;4977140;28;20213;-78
2021/06/17 03:23:59;;;;;;;14.27;2.80;;;24.80;99.90;;;;;;4975974;28;20244;-77
2021/06/17 03:26:26;;;;;;;8.07;2.83;;;24.80;99.90;;;;;;4977196;28;20575;-89
2021/06/17 03:28:54;;;;;;;2.97;2.78;;;24.80;99.90;;;;;;4977298;28;20162;-83
2021/06/17 03:31:20;;;;;;;12.43;3.10;;;24.80;99.90;;;;;;4977233;28;20602;-78
2021/06/17 03:33:49;;;;;;;5.78;2.47;;;24.80;99.90;;;;;;4978147;28;20162;-91
2021/06/17 03:36:16;;;;;;;5.70;3.70;;;24.80;99.90;;;;;;4976015;28;20197;-90
2021/06/17 03:38:43;;;;;;;2.75;2.55;;;24.80;99.90;;;;;;4977216;28;20216;-84
2021/06/17 03:41:12;;;;;;;5.78;3.10;;;24.80;99.90;;;;;;4977127;28;20205;-82
2021/06/17 03:43:39;;;;;;;4.63;3.05;;;24.80;99.90;;;;;;4976893;28;20162;-88
2021/06/17 03:46:06;;;;;;;3.78;2.63;;;24.80;99.90;;;;;;4975267;28;20208;-79
2021/06/17 03:48:33;;;;;;;3.72;3.03;;;24.90;99.90;;;;;;4975884;28;20523;-78
2021/06/17 03:51:00;;;;;;;5.32;3.30;;;24.90;99.90;;;;;;4975229;28;20208;-79
2021/06/17 03:53:26;;;;;;;2.92;2.60;;;24.80;99.90;;;;;;4976619;28;20170;-87
2021/06/17 03:55:54;;;;;;;3.17;2.15;;;24.90;99.90;;;;;;4976473;28;20559;-88
2021/06/17 03:58:25;;;;;;;5.10;2.60;;;24.80;99.90;;;;;;4976887;28;20169;-83
2021/06/17 04:00:54;;;;;;;4.75;2.35;;;24.80;99.90;;;;;;4975815;28;20185;-78
2021/06/17 04:03:20;;;;;;;2.85;2.63;;;24.80;99.90;;;;;;4974236;28;20265;-78
2021/06/17 04:05:47;;;;;;;3.10;2.17;;;24.80;99.90;;;;;;4975277;28;20276;-78
2021/06/17 04:08:15;;;;;;;3.63;2.40;;;24.90;99.90;;;;;;4975319;28;20185;-78
2021/06/17 04:10:42;;;;;;;5.95;2.47;;;24.90;99.90;;;;;;4974699;28;20674;-78
2021/06/17 04:13:11;;;;;;;3.95;2.70;;;25.10;99.90;;;;;;4974954;28;20170;-86
2021/06/17 04:15:38;;;;;;;6.15;2.72;;;25.30;99.90;;;;;;4975179;28;20698;-79
2021/06/17 04:18:04;;;;;;;2.90;2.70;;;25.40;99.90;;;;;;4975083;28;20186;-80
2021/06/17 04:20:43;;;;;;;3.20;2.42;;;25.50;99.90;;;;;;4975346;28;20272;-78
2021/06/17 04:23:11;;;;;;;2.72;2.53;;;25.50;99.90;;;;;;4975603;28;20193;-79
2021/06/17 04:25:40;;;;;;;4.13;2.50;;;25.50;99.90;;;;;;4975158;28;20512;-78
2021/06/17 04:28:06;;;;;;;8.57;2.90;;;25.40;99.90;;;;;;4976091;28;20166;-83
2021/06/17 04:30:33;;;;;;;3.95;2.50;;;25.50;99.90;;;;;;4975615;28;20194;-82
2021/06/17 04:33:02;;;;;;;5.03;2.65;;;25.60;99.90;;;;;;4975699;28;20170;-79
2021/06/17 04:35:29;;;;;;;2.78;2.58;;;25.70;99.90;;;;;;4975899;28;20166;-88
2021/06/17 04:37:57;;;;;;;4.35;2.45;;;25.90;99.90;;;;;;4975577;28;20472;-82
2021/06/17 04:40:23;;;;;;;8.07;2.15;;;26.10;99.90;;;;;;4975016;28;20269;-79
2021/06/17 04:42:51;;;;;;;4.65;2.55;;;26.30;99.90;;;;;;4975508;28;20262;-78
2021/06/17 04:45:19;;;;;;;4.00;2.10;;;26.40;99.90;;;;;;4975140;28;20158;-85
2021/06/17 04:47:49;;;;;;;5.35;2.20;;;26.50;99.90;;;;;;4974810;28;20158;-85
2021/06/17 04:50:16;;;;;;;19.95;2.90;;;26.60;99.90;;;;;;4975040;28;20173;-77
2021/06/17 04:53:18;;;;;;;3.30;2.22;;;26.60;99.90;;;;;;4974542;28;20166;-84
2021/06/17 04:55:48;;;;;;;2.67;2.25;;;26.60;99.90;;;;;;4975113;28;20197;-86
2021/06/17 04:58:15;;;;;;;3.28;2.13;;;26.70;99.90;;;;;;4973620;28;20174;-77
2021/06/17 05:00:41;;;;;;;2.13;1.95;;;26.80;99.90;;;;;;4975476;28;20197;-87
2021/06/17 05:03:06;;;;;;;2.45;1.85;;;26.80;99.90;;;;;;4974438;28;20228;-90
2021/06/17 05:05:32;;;;;;;5.30;1.85;;;26.60;99.90;;;;;;4974283;28;20166;-79
2021/06/17 05:10:48;;;;;;;6.50;2.22;;;26.70;99.90;;;;;;4973952;28;20189;-84
2021/06/17 05:13:14;;;;;;;11.82;1.77;;;26.70;99.90;;;;;;4972886;28;20166;-78
2021/06/17 05:15:40;;;;;;;2.40;2.10;;;26.60;99.90;;;;;;4973933;28;20185;-78
2021/06/17 05:18:05;;;;;;;18.38;1.90;;;26.60;99.90;;;;;;4974396;28;20523;-90
2021/06/17 05:20:31;;;;;;;7.47;2.40;;;26.60;99.90;;;;;;4973534;28;20194;-78
2021/06/17 05:22:57;;;;;;;7.25;2.10;;;26.40;99.90;;;;;;4973838;28;20273;-82
2021/06/17 05:25:22;;;;;;;8.32;2.45;;;26.30;99.90;;;;;;4973977;28;20177;-86
2021/06/17 05:27:48;;;;;;;4.03;2.35;;;26.30;99.90;;;;;;4974186;28;20178;-80
2021/06/17 05:30:14;;;;;;;10.35;2.40;;;26.30;99.90;;;;;;4973382;28;20174;-79
2021/06/17 05:32:42;;;;;;;5.93;2.80;;;26.30;99.90;;;;;;4974050;28;20490;-87
2021/06/17 05:35:08;;;;;;;8.57;2.30;;;26.30;99.90;;;;;;4974471;28;20168;-89
2021/06/17 05:37:34;;;;;;;7.43;2.60;;;26.20;99.90;;;;;;4973923;28;20212;-90
2021/06/17 05:39:59;;;;;;;7.05;2.15;;;26.40;99.90;;;;;;4972245;28;20166;-82
2021/06/17 05:42:25;;;;;;;3.72;2.53;;;26.40;99.90;;;;;;4972763;28;20225;-90
2021/06/17 05:44:53;;;;;;;12.80;2.75;;;26.50;99.90;;;;;;4973363;28;20174;-82
2021/06/17 05:47:19;;;;;;;10.15;2.80;;;26.40;99.90;;;;;;4973336;28;20265;-82
2021/06/17 05:49:45;;;;;;;4.82;2.22;;;26.40;99.90;;;;;;4974120;28;20304;-77
2021/06/17 05:52:10;;;;;;;8.25;3.05;;;26.30;99.90;;;;;;4973291;28;20198;-78
2021/06/17 05:54:36;;;;;;;9.48;2.35;;;26.30;99.90;;;;;;4973542;28;20253;-85
2021/06/17 05:57:02;;;;;;;13.50;2.25;;;26.30;99.90;;;;;;4972679;28;20217;-77
2021/06/17 05:59:27;;;;;;;5.05;2.08;;;26.30;99.90;;;;;;4975263;28;20177;-77
2021/06/17 06:01:53;;;;;;;9.40;2.28;;;26.20;99.90;;;;;;4976934;28;20200;-78
2021/06/17 06:04:18;;;;;;;10.93;1.90;;;26.40;99.90;;;;;;4976149;28;20642;-80
2021/06/17 06:06:44;;;;;;;2.38;1.55;;;26.30;99.90;;;;;;4976453;28;20170;-86
2021/06/17 06:09:10;;;;;;;18.02;2.35;;;26.30;99.90;;;;;;4976338;28;20203;-79
2021/06/17 06:11:36;;;;;;;8.43;1.75;;;26.20;99.90;;;;;;4975645;28;20217;-80
2021/06/17 06:14:02;;;;;;;9.70;1.58;;;26.20;99.90;;;;;;4976674;28;20221;-82
2021/06/17 06:16:28;;;;;;;9.63;1.90;;;26.30;99.90;;;;;;4976342;28;20209;-86
2021/06/17 06:18:54;;;;;;;6.80;1.90;;;26.00;99.90;;;;;;4976345;28;20197;-80
2021/06/17 06:21:20;;;;;;;5.15;2.22;;;26.00;99.90;;;;;;4977179;28;20224;-83
2021/06/17 06:23:46;;;;;;;1.65;1.55;;;25.90;99.90;;;;;;4975795;28;20178;-80
2021/06/17 06:26:11;;;;;;;10.30;2.63;;;26.00;99.90;;;;;;4977492;28;20634;-92
2021/06/17 06:28:37;;;;;;;2.00;1.70;;;26.00;99.90;;;;;;4976215;28;20181;-81
2021/06/17 06:31:02;;;;;;;2.58;1.73;;;26.20;99.90;;;;;;4975513;28;20190;-85
2021/06/17 06:33:28;;;;;;;3.83;1.65;;;26.50;99.90;;;;;;4976133;28;20646;-91
2021/06/17 06:35:54;;;;;;;6.03;1.92;;;26.40;99.90;;;;;;4976819;28;20236;-86
2021/06/17 06:38:20;;;;;;;6.65;1.80;;;26.50;99.90;;;;;;4976133;28;20185;-81
2021/06/17 06:40:45;;;;;;;2.67;1.83;;;26.40;99.90;;;;;;4974377;28;20252;-85
2021/06/17 06:43:13;;;;;;;8.38;1.83;;;26.60;99.90;;;;;;4976091;28;20170;-81
2021/06/17 06:45:40;;;;;;;12.23;2.20;;;26.50;99.90;;;;;;4974318;28;20189;-85
2021/06/17 06:48:06;;;;;;;22.02;1.90;;;26.60;99.90;;;;;;4975452;28;20177;-80
2021/06/17 06:50:32;;;;;;;15.88;1.83;;;26.40;99.90;;;;;;4975555;28;20260;-82
2021/06/17 06:52:58;;;;;;;3.22;1.70;;;26.20;99.90;;;;;;4976097;28;20682;-79
2021/06/17 06:55:24;;;;;;;4.47;1.92;;;26.10;99.90;;;;;;4975396;28;20185;-78
2021/06/17 06:57:50;;;;;;;20.25;2.38;;;26.20;99.90;;;;;;4975532;28;20538;-78
2021/06/17 07:00:17;;;;;;;3.90;1.48;;;26.20;99.90;;;;;;4975689;28;20170;-79
2021/06/17 07:02:44;;;;;;;5.88;1.80;;;26.40;99.90;;;;;;4975657;28;20237;-83
2021/06/17 07:05:10;;;;;;;3.40;1.50;;;26.60;99.90;;;;;;4974012;28;20811;-87
2021/06/17 07:07:36;;;;;;;5.20;1.83;;;26.80;99.90;;;;;;4976112;28;20180;-93
2021/06/17 07:10:03;;;;;;;4.63;2.08;;;27.00;99.90;;;;;;4973894;28;20170;-90
2021/06/17 07:12:29;;;;;;;3.20;1.55;;;27.00;99.90;;;;;;4974121;28;20199;-79
2021/06/17 07:14:54;;;;;;;7.38;2.22;;;26.70;99.90;;;;;;4975080;28;20178;-79
2021/06/17 07:17:20;;;;;;;9.38;1.92;;;26.70;99.90;;;;;;4974737;28;20768;-79
2021/06/17 07:19:46;;;;;;;3.60;1.70;;;26.80;99.90;;;;;;4975997;28;20253;-80
2021/06/17 07:22:11;;;;;;;3.88;1.40;;;26.80;99.90;;;;;;4975492;28;20278;-87
2021/06/17 07:24:37;;;;;;;3.55;1.90;;;26.70;99.90;;;;;;4973779;28;20166;-89
2021/06/17 07:27:04;;;;;;;3.58;2.15;;;26.40;99.90;;;;;;4974815;28;20170;-85
2021/06/17 07:29:30;;;;;;;17.27;2.83;;;26.30;99.90;;;;;;4990718;28;20196;-85
2021/06/17 07:31:56;;;;;;;1.42;1.33;;;26.60;99.90;;;;;;5013230;28;20193;-86
2021/06/17 07:34:22;;;;;;;5.38;1.77;;;26.70;99.90;;;;;;5013371;28;20180;-87
2021/06/17 07:36:50;;;;;;;14.90;2.40;;;26.90;99.90;;;;;;5012440;28;20243;-84
2021/06/17 07:39:16;;;;;;;6.82;1.92;;;27.10;99.90;;;;;;5012756;28;20625;-84
2021/06/17 07:41:42;;;;;;;7.05;1.65;;;27.20;99.90;;;;;;5012684;28;20192;-83
2021/06/17 07:44:08;;;;;;;5.60;1.70;;;27.10;99.90;;;;;;5012825;28;20255;-86
2021/06/17 07:46:34;;;;;;;13.73;2.00;;;27.10;99.90;;;;;;5014110;28;20168;-84
2021/06/17 07:49:00;;;;;;;21.15;2.90;;;26.70;99.90;;;;;;5012752;28;20183;-84
2021/06/17 07:51:28;;;;;;;9.63;2.25;;;26.60;99.90;;;;;;5012486;28;20184;-84
2021/06/17 07:53:54;;;;;;;9.43;2.08;;;26.50;99.90;;;;;;5012696;28;20172;-84
2021/06/17 07:56:20;;;;;;;10.23;1.92;;;26.50;99.90;;;;;;5012719;28;20232;-85
2021/06/17 07:58:47;;;;;;;3.28;1.70;;;26.20;99.90;;;;;;5014056;28;20160;-87
2021/06/17 08:01:12;;;;;;;8.65;1.92;;;26.20;99.90;;;;;;5014866;28;20259;-94
2021/06/17 08:03:38;;;;;;;5.90;2.10;;;26.40;99.90;;;;;;5015779;28;20574;-81
2021/06/17 08:06:04;;;;;;;4.03;2.00;;;26.80;99.90;;;;;;5014640;28;20197;-81
2021/06/17 08:08:30;;;;;;;5.72;1.83;;;26.80;99.90;;;;;;5013946;28;20183;-80
2021/06/17 08:10:56;;;;;;;16.42;2.13;;;27.00;99.90;;;;;;5012034;28;20605;-79
2021/06/17 08:13:22;;;;;;;4.60;1.90;;;27.40;99.90;;;;;;5013492;28;20164;-87
2021/06/17 08:15:48;;;;;;;11.05;2.20;;;27.70;99.90;;;;;;5013062;28;20195;-80
2021/06/17 08:18:15;;;;;;;4.82;2.00;;;27.90;99.90;;;;;;5013176;28;20165;-80
2021/06/17 08:20:42;;;;;;;18.20;2.95;;;28.10;99.90;;;;;;5013147;28;20184;-80
2021/06/17 08:23:08;;;;;;;17.13;1.98;;;28.00;99.90;;;;;;5012071;28;20268;-80
2021/06/17 08:25:34;;;;;;;4.40;1.83;;;27.90;99.90;;;;;;5010927;28;20280;-80
2021/06/17 08:28:04;;;;;;;2.35;1.13;;;27.80;99.90;;;;;;5012555;28;20184;-80
2021/06/17 08:30:31;;;;;;;9.38;1.80;;;27.80;99.90;;;;;;5012461;28;20564;-80
2021/06/17 08:32:57;;;;;;;5.95;2.17;;;27.90;99.90;;;;;;5012655;28;20171;-80
2021/06/17 08:35:23;;;;;;;8.30;1.80;;;28.00;99.90;;;;;;5012710;28;20176;-80
2021/06/17 08:37:49;;;;;;;9.50;1.45;;;28.10;99.90;;;;;;5012644;28;20208;-80
2021/06/17 08:40:16;;;;;;;6.93;2.30;;;28.20;99.90;;;;;;5012859;28;20536;-79
2021/06/17 08:42:42;;;;;;;6.35;1.63;;;28.40;99.90;;;;;;5012850;28;20184;-80
2021/06/17 08:45:10;;;;;;;3.08;2.13;;;28.30;99.90;;;;;;5012574;28;20243;-80
2021/06/17 08:47:39;;;;;;;6.90;1.65;;;28.50;99.90;;;;;;5012709;28;20222;-81
2021/06/17 08:50:10;;;;;;;3.53;2.30;;;28.90;99.90;;;;;;5012403;28;20264;-86
2021/06/17 08:52:40;;;;;;;1.52;1.40;;;29.20;99.90;;;;;;5012881;28;20592;-81
2021/06/17 08:55:21;;;;;;;7.32;2.00;;;29.20;99.90;;;;;;5012805;28;20160;-80
2021/06/17 08:57:49;;;;;;;4.68;2.10;;;29.30;99.90;;;;;;5010787;28;20668;-80
2021/06/17 09:00:21;;;;;;;7.82;1.70;;;29.80;99.90;;;;;;5012565;28;20621;-80
2021/06/17 09:03:07;;;;;;;5.85;1.83;;;30.30;99.90;;;;;;5011154;28;20518;-80
2021/06/17 09:05:37;;;;;;;7.93;1.80;;;30.40;99.90;;;;;;5012238;28;20184;-80
2021/06/17 09:08:04;;;;;;;5.50;1.80;;;30.40;99.90;;;;;;5012497;28;20168;-80
2021/06/17 09:10:30;;;;;;;2.22;1.65;;;30.40;99.90;;;;;;5012293;28;20180;-80
2021/06/17 09:12:59;;;;;;;12.43;1.85;;;30.20;99.90;;;;;;5012115;28;20172;-81
2021/06/17 09:15:41;;;;;;;8.15;2.33;;;30.50;99.90;;;;;;5012070;28;20227;-80
2021/06/17 09:18:24;;;;;;;4.00;1.40;;;30.30;99.90;;;;;;5012017;28;20176;-79
2021/06/17 09:20:57;;;;;;;4.68;2.28;;;30.40;99.90;;;;;;5012297;28;20259;-81
2021/06/17 09:23:24;;;;;;;4.00;1.55;;;30.40;99.90;;;;;;5012363;28;20188;-82
2021/06/17 09:25:53;;;;;;;30.70;2.05;;;30.20;99.90;;;;;;5011876;28;20600;-80
2021/06/17 09:28:18;;;;;;;15.30;2.20;;;30.40;99.90;;;;;;5011951;28;20168;-80
2021/06/17 09:30:44;;;;;;;7.70;2.00;;;30.50;99.90;;;;;;5011969;28;20274;-88
2021/06/17 09:33:12;;;;;;;3.58;2.10;;;30.60;99.90;;;;;;5013022;28;20188;-81
2021/06/17 09:35:52;;;;;;;10.95;2.47;;;30.50;99.90;;;;;;5016136;28;20164;-80
2021/06/17 09:38:19;;;;;;;3.95;1.92;;;30.20;99.90;;;;;;5016039;28;20188;-82
2021/06/17 09:40:46;;;;;;;8.18;1.98;;;30.60;99.90;;;;;;5016307;28;20184;-89
2021/06/17 09:43:23;;;;;;;12.85;2.17;;;31.10;99.90;;;;;;5016156;28;20168;-81
2021/06/17 09:45:53;;;;;;;3.47;1.80;;;31.30;99.90;;;;;;5016210;28;20246;-81
2021/06/17 09:48:51;;;;;;;5.75;1.60;;;31.40;99.90;;;;;;5014681;28;20175;-80
2021/06/17 09:51:25;;;;;;;7.65;1.40;;;31.70;99.90;;;;;;5003821;28;20211;-84
2021/06/17 09:53:54;;;;;;;2.38;1.33;;;31.60;99.90;;;;;;5016474;28;20214;-93
2021/06/17 09:56:31;;;;;;;8.50;1.13;;;31.70;99.00;;;;;;5016380;28;20730;-81
2021/06/17 09:58:57;;;;;;;1.45;1.10;;;31.60;99.80;;;;;;5016243;28;20172;-80
2021/06/17 10:01:35;;;;;;;5.40;0.95;;;31.70;99.30;;;;;;5015846;28;20238;-82
2021/06/17 10:04:09;;;;;;;11.85;1.10;;;31.70;98.60;;;;;;5016039;28;20164;-81
2021/06/17 10:06:36;;;;;;;11.77;1.52;;;31.70;99.90;;;;;;5014437;28;20168;-85
2021/06/17 10:09:18;;;;;;;7.55;1.55;;;31.50;99.00;;;;;;5016263;28;20179;-81
2021/06/17 10:11:44;;;;;;;2.65;1.55;;;31.20;99.60;;;;;;5015872;28;20184;-86
2021/06/17 10:14:11;;;;;;;4.28;1.98;;;31.20;99.30;;;;;;5015680;28;20215;-80
2021/06/17 10:16:39;;;;;;;4.53;1.20;;;31.30;99.90;;;;;;5015130;28;20206;-81
2021/06/17 10:19:05;;;;;;;15.00;2.10;;;31.40;99.30;;;;;;5015669;28;20251;-82
2021/06/17 10:21:34;;;;;;;8.10;1.40;;;31.40;99.00;;;;;;5016273;28;20278;-80
2021/06/17 10:24:11;;;;;;;6.25;1.70;;;31.40;99.90;;;;;;5016733;28;20175;-85
2021/06/17 10:26:44;;;;;;;11.52;1.15;;;31.10;99.90;;;;;;5014917;28;20174;-81
2021/06/17 10:29:27;;;;;;;8.45;2.30;;;31.10;99.90;;;;;;5015383;28;20179;-81
2021/06/17 10:31:56;;;;;;;13.95;1.60;;;31.10;99.90;;;;;;5014682;28;20187;-80
2021/06/17 10:34:31;;;;;;;6.53;1.40;;;31.00;99.80;;;;;;5015283;28;20247;-85
2021/06/17 10:37:20;;;;;;;4.13;1.48;;;31.10;99.90;;;;;;5015188;28;20686;-87
2021/06/17 10:40:06;;;;;;;8.15;1.52;;;30.80;99.90;;;;;;5014726;28;20176;-82
2021/06/17 10:42:33;;;;;;;1.48;1.23;;;30.70;99.90;;;;;;5014955;28;20295;-80
2021/06/17 10:45:01;;;;;;;8.90;1.20;;;30.40;99.90;;;;;;5014746;28;20168;-80
2021/06/17 10:47:39;;;;;;;11.10;1.40;;;30.20;99.90;;;;;;5015187;28;20169;-79
2021/06/17 10:50:06;;;;;;;8.48;1.65;;;30.00;99.90;;;;;;5015075;28;20255;-80
2021/06/17 10:52:33;;;;;;;3.70;1.40;;;30.10;99.90;;;;;;5013968;28;20591;-79
2021/06/17 10:55:03;;;;;;;8.50;1.48;;;30.10;99.90;;;;;;5015460;28;20168;-80
2021/06/17 10:57:50;;;;;;;2.55;1.35;;;29.80;99.90;;;;;;5014894;28;20211;-84
2021/06/17 11:00:25;;;;;;;9.27;1.10;;;29.90;99.90;;;;;;5013082;28;20199;-84
2021/06/17 11:03:06;;;;;;;2.05;1.10;;;29.90;99.90;;;;;;5016996;28;20167;-89
2021/06/17 11:05:34;;;;;;;4.70;2.22;;;29.90;99.90;;;;;;5015415;28;20168;-90
2021/06/17 11:08:19;;;;;;;4.80;1.42;;;30.00;99.90;;;;;;5016034;28;20245;-87
2021/06/17 11:10:45;;;;;;;6.18;1.60;;;30.10;99.90;;;;;;5016405;28;20682;-87
2021/06/17 11:13:35;;;;;;;3.55;2.35;;;30.30;99.90;;;;;;5015871;28;20195;-86
2021/06/17 11:16:14;;;;;;;10.23;1.90;;;30.30;99.90;;;;;;5016496;28;20179;-90
2021/06/17 11:21:22;;;;;;;3.90;1.60;;;30.40;99.90;;;;;;5016425;28;20201;-87
2021/06/17 11:24:03;;;;;;;7.03;1.80;;;30.10;99.90;;;;;;5019321;28;20190;-82
2021/06/17 11:26:55;;;;;;;5.47;1.70;;;29.90;99.90;;;;;;5022250;28;20195;-82
2021/06/17 11:30:02;;;;;;;9.15;1.38;;;29.70;99.90;;;;;;5020677;28;20168;-82
2021/06/17 11:32:30;;;;;;;5.13;1.25;;;29.80;99.90;;;;;;5020218;28;20255;-84
2021/06/17 11:34:56;;;;;;;4.10;1.98;;;29.70;99.90;;;;;;5024570;28;20239;-82
2021/06/17 11:37:32;;;;;;;3.30;2.00;;;29.70;99.90;;;;;;5026047;28;20208;-83
2021/06/17 11:40:10;;;;;;;3.33;1.30;;;29.70;99.90;;;;;;5026501;28;20175;-83
2021/06/17 11:42:36;;;;;;;4.25;1.50;;;29.80;99.90;;;;;;5028869;28;20199;-83
2021/06/17 11:45:09;;;;;;;8.93;1.45;;;30.00;99.90;;;;;;5024802;28;20176;-83
2021/06/17 11:47:48;;;;;;;2.78;1.40;;;30.00;99.90;;;;;;5025935;28;20173;-83
2021/06/17 11:50:14;;;;;;;8.88;1.40;;;30.10;99.90;;;;;;5023990;28;20176;-83
2021/06/17 11:52:40;;;;;;;6.93;1.50;;;30.00;99.90;;;;;;5023479;28;20163;-83
2021/06/17 11:55:07;;;;;;;7.18;1.90;;;30.00;99.90;;;;;;5017922;28;20176;-82
2021/06/17 11:57:38;;;;;;;2.25;1.35;;;30.00;99.90;;;;;;5017309;28;20212;-83
2021/06/17 12:00:08;;;;;;;4.75;2.10;;;30.00;99.90;;;;;;5018993;28;20160;-93
2021/06/17 12:02:34;;;;;;;7.47;1.85;;;30.10;99.90;;;;;;5016940;28;20263;-83
2021/06/17 12:05:06;;;;;;;6.75;1.30;;;30.20;99.90;;;;;;5022887;28;20165;-83
2021/06/17 12:07:44;;;;;;;8.57;1.55;;;30.00;99.90;;;;;;5016985;28;20180;-82
2021/06/17 12:10:10;;;;;;;4.30;1.85;;;30.00;99.90;;;;;;5018629;28;20173;-82
2021/06/17 12:12:37;;;;;;;3.05;1.45;;;30.00;99.90;;;;;;5015499;28;20234;-83
2021/06/17 12:15:05;;;;;;;3.40;1.38;;;29.80;99.90;;;;;;5017642;28;20215;-87
2021/06/17 12:17:44;;;;;;;1.92;1.40;;;29.70;99.90;;;;;;5014610;28;20215;-92
2021/06/17 12:20:21;;;;;;;6.95;1.50;;;29.80;99.90;;;;;;5016594;28;20174;-87
2021/06/17 12:23:02;;;;;;;4.18;1.30;;;30.00;99.90;;;;;;5016478;28;20188;-93
2021/06/17 12:25:57;;;;;;;2.72;1.77;;;30.20;99.90;;;;;;5017019;28;20160;-95
2021/06/17 12:28:24;;;;;;;3.35;1.30;;;30.10;99.90;;;;;;5012080;28;20203;-81
2021/06/17 12:30:52;;;;;;;1.60;1.50;;;30.10;99.90;;;;;;5014976;28;20199;-82
2021/06/17 12:33:20;;;;;;;2.75;1.67;;;30.20;99.90;;;;;;5015427;28;20632;-81
2021/06/17 12:35:55;;;;;;;2.92;1.27;;;30.30;99.90;;;;;;5016613;28;20191;-81
2021/06/17 12:41:17;;;;;;;5.25;1.50;;;30.20;99.90;;;;;;4964189;28;20724;-81
2021/06/17 12:43:59;;;;;;;1.98;1.30;;;30.40;99.90;;;;;;5002070;28;20185;-82
2021/06/17 12:46:46;;;;;;;6.78;1.60;;;30.40;99.90;;;;;;5004013;28;20335;-84
2021/06/17 12:52:10;;;;;;;2.95;1.30;;;30.20;99.90;;;;;;4975899;28;20358;-83
2021/06/17 12:54:38;;;;;;;4.82;1.23;;;30.30;99.90;;;;;;4993597;28;20737;-83
2021/06/17 12:57:06;;;;;;;1.17;1.08;;;30.30;99.90;;;;;;4993802;28;20228;-87
2021/06/17 12:59:42;;;;;;;6.32;1.75;;;30.50;99.90;;;;;;4976739;28;20185;-82
2021/06/17 13:02:13;;;;;;;2.15;1.42;;;30.60;99.90;;;;;;4991486;28;20200;-82
2021/06/17 13:04:39;;;;;;;5.43;1.38;;;30.60;99.90;;;;;;4992063;28;20165;-82
2021/06/17 13:07:19;;;;;;;3.42;1.38;;;30.30;99.90;;;;;;4991637;28;20258;-82
2021/06/17 13:09:45;;;;;;;3.60;1.60;;;30.10;99.90;;;;;;4950560;28;20624;-81